GLD1705 SBPJ-SBSN
Flight info
| Callsign | GLD1705 |
|---|---|
| Flight time | N/A |
| Altitude | 26000 |
| Route | OPNUP DCT ITALA DCT RONUB UL452 TORAX |
| Aircraft | B350/L-SBGRW/S |
Departure
| Time | 2026-04-22 18:06 |
|---|---|
| Airport | Brigadeiro Lysias Rodrigues Airport (SBPJ) |
Arrival
| Time | N/A |
|---|---|
| Airport | Santarém - Maestro Wilson Fonseca International Airport (SBSN) |
| Time | Latitude | Longitude | Altitude | Speed | Heading |
|---|---|---|---|---|---|
| 2026-04-22 17:58 | -10.29230 | -48.36099 | 749 ft | 0 kts | 216° |
| 2026-04-22 18:03 | -10.29257 | -48.36093 | 748 ft | 10 kts | 130° |
| 2026-04-22 18:04 | -10.29255 | -48.36036 | 747 ft | 12 kts | 32° |
| 2026-04-22 18:04 | -10.29144 | -48.35961 | 750 ft | 25 kts | 36° |
| 2026-04-22 18:04 | -10.28997 | -48.35910 | 747 ft | 20 kts | 302° |
| 2026-04-22 18:04 | -10.28919 | -48.36043 | 745 ft | 27 kts | 299° |
| 2026-04-22 18:05 | -10.28762 | -48.36301 | 739 ft | 55 kts | 303° |
| 2026-04-22 18:05 | -10.28587 | -48.36590 | 734 ft | 19 kts | 295° |
| 2026-04-22 18:05 | -10.28549 | -48.36617 | 733 ft | 27 kts | 110° |
| 2026-04-22 18:05 | -10.28797 | -48.36237 | 741 ft | 98 kts | 124° |
| 2026-04-22 18:06 | -10.29260 | -48.35537 | 833 ft | 137 kts | 123° |
| 2026-04-22 18:06 | -10.29811 | -48.34646 | 1093 ft | 159 kts | 120° |
| 2026-04-22 18:06 | -10.30417 | -48.33690 | 1520 ft | 162 kts | 127° |
| 2026-04-22 18:06 | -10.31084 | -48.32785 | 2212 ft | 161 kts | 125° |
| 2026-04-22 18:07 | -10.31706 | -48.31849 | 2863 ft | 162 kts | 122° |
| 2026-04-22 18:07 | -10.32313 | -48.30896 | 3486 ft | 160 kts | 121° |
| 2026-04-22 18:07 | -10.32932 | -48.29946 | 3949 ft | 163 kts | 122° |
| 2026-04-22 18:07 | -10.33561 | -48.28986 | 4493 ft | 163 kts | 122° |
| 2026-04-22 18:08 | -10.34192 | -48.28025 | 5048 ft | 165 kts | 122° |
| 2026-04-22 18:08 | -10.34681 | -48.26989 | 5589 ft | 163 kts | 95° |
| 2026-04-22 18:08 | -10.34379 | -48.25901 | 6096 ft | 167 kts | 56° |
| 2026-04-22 18:08 | -10.33388 | -48.25264 | 6589 ft | 178 kts | 12° |
| 2026-04-22 18:09 | -10.32132 | -48.25307 | 7064 ft | 184 kts | 357° |
| 2026-04-22 18:09 | -10.30855 | -48.25442 | 7547 ft | 185 kts | 358° |
| 2026-04-22 18:09 | -10.29564 | -48.25562 | 8033 ft | 187 kts | 358° |
| 2026-04-22 18:09 | -10.28262 | -48.25681 | 8564 ft | 188 kts | 358° |
| 2026-04-22 18:10 | -10.26965 | -48.25794 | 9069 ft | 190 kts | 358° |
| 2026-04-22 18:10 | -10.25640 | -48.25911 | 9578 ft | 192 kts | 358° |
| 2026-04-22 18:10 | -10.24305 | -48.26032 | 10058 ft | 193 kts | 358° |
| 2026-04-22 18:10 | -10.22962 | -48.26151 | 10508 ft | 194 kts | 358° |
| 2026-04-22 18:11 | -10.21606 | -48.26270 | 11004 ft | 196 kts | 357° |
| 2026-04-22 18:11 | -10.20247 | -48.26389 | 11495 ft | 197 kts | 356° |
| 2026-04-22 18:11 | -10.18880 | -48.26509 | 11972 ft | 198 kts | 356° |
| 2026-04-22 18:11 | -10.17522 | -48.26630 | 12428 ft | 198 kts | 355° |
| 2026-04-22 18:12 | -10.16142 | -48.26753 | 12882 ft | 199 kts | 355° |
| 2026-04-22 18:12 | -10.14749 | -48.26876 | 13338 ft | 200 kts | 355° |
| 2026-04-22 18:12 | -10.13350 | -48.26999 | 13797 ft | 201 kts | 354° |
| 2026-04-22 18:12 | -10.11951 | -48.27122 | 14189 ft | 203 kts | 354° |
| 2026-04-22 18:13 | -10.10557 | -48.27244 | 14570 ft | 204 kts | 354° |
| 2026-04-22 18:13 | -10.09144 | -48.27390 | 14948 ft | 205 kts | 348° |
| 2026-04-22 18:13 | -10.07820 | -48.27907 | 15335 ft | 205 kts | 326° |
| 2026-04-22 18:13 | -10.06741 | -48.28854 | 15701 ft | 207 kts | 314° |
| 2026-04-22 18:14 | -10.05722 | -48.29892 | 16068 ft | 208 kts | 316° |
| 2026-04-22 18:14 | -10.04669 | -48.30908 | 16441 ft | 209 kts | 317° |
| 2026-04-22 18:14 | -10.03599 | -48.31923 | 16798 ft | 211 kts | 317° |
| 2026-04-22 18:14 | -10.02523 | -48.32946 | 17158 ft | 213 kts | 317° |
| 2026-04-22 18:15 | -10.01441 | -48.33978 | 17513 ft | 214 kts | 317° |
| 2026-04-22 18:15 | -10.00350 | -48.35018 | 17870 ft | 215 kts | 317° |
| 2026-04-22 18:15 | -9.99253 | -48.36062 | 18221 ft | 217 kts | 317° |
| 2026-04-22 18:15 | -9.98151 | -48.37112 | 18520 ft | 218 kts | 317° |
| 2026-04-22 18:16 | -9.97040 | -48.38171 | 18811 ft | 220 kts | 317° |
| 2026-04-22 18:16 | -9.95922 | -48.39236 | 19099 ft | 221 kts | 317° |
| 2026-04-22 18:16 | -9.94798 | -48.40306 | 19381 ft | 222 kts | 317° |
| 2026-04-22 18:16 | -9.93681 | -48.41371 | 19659 ft | 224 kts | 317° |
| 2026-04-22 18:17 | -9.92529 | -48.42469 | 19937 ft | 225 kts | 317° |
| 2026-04-22 18:17 | -9.91388 | -48.43556 | 20203 ft | 227 kts | 317° |
| 2026-04-22 18:17 | -9.90231 | -48.44657 | 20474 ft | 228 kts | 317° |
| 2026-04-22 18:17 | -9.89074 | -48.45760 | 20738 ft | 230 kts | 317° |
| 2026-04-22 18:18 | -9.87907 | -48.46872 | 21002 ft | 231 kts | 317° |
| 2026-04-22 18:18 | -9.86738 | -48.47985 | 21244 ft | 232 kts | 317° |
| 2026-04-22 18:18 | -9.85555 | -48.49112 | 21502 ft | 234 kts | 317° |
| 2026-04-22 18:18 | -9.84375 | -48.50236 | 21756 ft | 235 kts | 317° |
| 2026-04-22 18:19 | -9.83180 | -48.51373 | 22000 ft | 236 kts | 317° |
| 2026-04-22 18:19 | -9.81973 | -48.52521 | 22256 ft | 238 kts | 317° |
| 2026-04-22 18:19 | -9.80761 | -48.53675 | 22492 ft | 239 kts | 317° |
| 2026-04-22 18:19 | -9.79539 | -48.54838 | 22736 ft | 241 kts | 317° |
| 2026-04-22 18:20 | -9.78325 | -48.55993 | 22965 ft | 242 kts | 317° |
| 2026-04-22 18:20 | -9.77091 | -48.57168 | 23184 ft | 244 kts | 317° |
| 2026-04-22 18:20 | -9.75860 | -48.58340 | 23422 ft | 245 kts | 317° |
| 2026-04-22 18:20 | -9.74619 | -48.59520 | 23615 ft | 246 kts | 317° |
| 2026-04-22 18:21 | -9.73361 | -48.60715 | 23787 ft | 247 kts | 317° |
| 2026-04-22 18:21 | -9.72111 | -48.61904 | 23967 ft | 248 kts | 317° |
| 2026-04-22 18:21 | -9.70844 | -48.63110 | 24156 ft | 249 kts | 318° |
| 2026-04-22 18:21 | -9.69590 | -48.64302 | 24339 ft | 250 kts | 318° |
| 2026-04-22 18:22 | -9.68345 | -48.65540 | 24513 ft | 251 kts | 311° |
| 2026-04-22 18:22 | -9.67260 | -48.66936 | 24685 ft | 252 kts | 308° |
| 2026-04-22 18:22 | -9.66184 | -48.68355 | 24851 ft | 253 kts | 309° |
| 2026-04-22 18:22 | -9.65105 | -48.69752 | 25023 ft | 254 kts | 309° |
| 2026-04-22 18:23 | -9.64004 | -48.71169 | 25190 ft | 255 kts | 310° |
| 2026-04-22 18:23 | -9.62911 | -48.72577 | 25356 ft | 255 kts | 309° |
| 2026-04-22 18:23 | -9.61813 | -48.73998 | 25522 ft | 256 kts | 309° |
| 2026-04-22 18:24 | -9.59604 | -48.76849 | 25838 ft | 258 kts | 310° |
| 2026-04-22 18:24 | -9.58496 | -48.78281 | 25890 ft | 264 kts | 310° |
| 2026-04-22 18:24 | -9.56177 | -48.81271 | 25903 ft | 276 kts | 310° |
| 2026-04-22 18:25 | -9.54973 | -48.82827 | 25905 ft | 281 kts | 310° |
| 2026-04-22 18:25 | -9.53758 | -48.84394 | 25909 ft | 285 kts | 310° |
| 2026-04-22 18:25 | -9.52530 | -48.85980 | 25903 ft | 289 kts | 310° |
| 2026-04-22 18:26 | -9.50023 | -48.89213 | 25904 ft | 294 kts | 310° |
| 2026-04-22 18:26 | -9.48758 | -48.90845 | 25904 ft | 296 kts | 310° |
| 2026-04-22 18:26 | -9.47480 | -48.92494 | 25903 ft | 298 kts | 310° |
| 2026-04-22 18:26 | -9.46202 | -48.94142 | 25906 ft | 299 kts | 309° |
| 2026-04-22 18:27 | -9.44911 | -48.95805 | 25903 ft | 300 kts | 310° |
| 2026-04-22 18:27 | -9.43611 | -48.97481 | 25903 ft | 301 kts | 310° |
| 2026-04-22 18:27 | -9.42331 | -48.99131 | 25906 ft | 302 kts | 310° |
| 2026-04-22 18:27 | -9.41026 | -49.00813 | 25905 ft | 302 kts | 310° |
| 2026-04-22 18:28 | -9.39729 | -49.02484 | 25905 ft | 303 kts | 310° |
| 2026-04-22 18:28 | -9.38422 | -49.04168 | 25900 ft | 303 kts | 310° |
| 2026-04-22 18:28 | -9.37117 | -49.05849 | 25899 ft | 304 kts | 310° |
| 2026-04-22 18:28 | -9.35813 | -49.07530 | 25901 ft | 304 kts | 310° |
| 2026-04-22 18:29 | -9.34504 | -49.09213 | 25901 ft | 304 kts | 310° |
| 2026-04-22 18:29 | -9.33208 | -49.10885 | 25897 ft | 304 kts | 310° |
| 2026-04-22 18:29 | -9.31888 | -49.12586 | 25899 ft | 304 kts | 310° |
| 2026-04-22 18:29 | -9.30588 | -49.14257 | 25896 ft | 305 kts | 310° |
| 2026-04-22 18:30 | -9.29264 | -49.15962 | 25901 ft | 304 kts | 310° |
| 2026-04-22 18:30 | -9.26645 | -49.19330 | 25896 ft | 305 kts | 310° |
| 2026-04-22 18:30 | -9.25347 | -49.21002 | 25898 ft | 305 kts | 310° |
| 2026-04-22 18:31 | -9.24040 | -49.22684 | 25899 ft | 305 kts | 310° |
| 2026-04-22 18:31 | -9.22722 | -49.24377 | 25898 ft | 305 kts | 310° |
| 2026-04-22 18:31 | -9.21421 | -49.26052 | 25898 ft | 305 kts | 310° |
| 2026-04-22 18:31 | -9.20106 | -49.27744 | 25898 ft | 305 kts | 310° |
| 2026-04-22 18:32 | -9.18782 | -49.29446 | 25897 ft | 305 kts | 310° |
| 2026-04-22 18:32 | -9.17463 | -49.31141 | 25899 ft | 306 kts | 310° |
| 2026-04-22 18:32 | -9.16164 | -49.32811 | 25896 ft | 306 kts | 310° |
| 2026-04-22 18:32 | -9.14849 | -49.34501 | 25896 ft | 306 kts | 310° |
| 2026-04-22 18:33 | -9.13537 | -49.36187 | 25895 ft | 305 kts | 310° |
| 2026-04-22 18:33 | -9.12221 | -49.37880 | 25894 ft | 305 kts | 310° |
| 2026-04-22 18:33 | -9.10910 | -49.39563 | 25895 ft | 306 kts | 310° |
| 2026-04-22 18:33 | -9.09590 | -49.41258 | 25895 ft | 306 kts | 310° |
| 2026-04-22 18:34 | -9.08277 | -49.42944 | 25894 ft | 306 kts | 310° |
| 2026-04-22 18:34 | -9.06959 | -49.44639 | 25894 ft | 306 kts | 310° |
| 2026-04-22 18:34 | -9.05632 | -49.46341 | 25895 ft | 306 kts | 310° |
| 2026-04-22 18:34 | -9.04330 | -49.48012 | 25894 ft | 306 kts | 310° |
| 2026-04-22 18:35 | -9.03010 | -49.49707 | 25895 ft | 306 kts | 310° |
| 2026-04-22 18:35 | -9.01698 | -49.51392 | 25894 ft | 305 kts | 310° |
| 2026-04-22 18:35 | -9.00380 | -49.53084 | 25894 ft | 305 kts | 310° |
| 2026-04-22 18:35 | -8.99066 | -49.54770 | 25895 ft | 305 kts | 310° |
| 2026-04-22 18:36 | -8.97754 | -49.56454 | 25894 ft | 305 kts | 310° |
| 2026-04-22 18:36 | -8.96434 | -49.58147 | 25893 ft | 305 kts | 310° |
| 2026-04-22 18:36 | -8.95125 | -49.59825 | 25895 ft | 305 kts | 310° |
| 2026-04-22 18:36 | -8.93807 | -49.61516 | 25894 ft | 305 kts | 310° |
| 2026-04-22 18:37 | -8.92492 | -49.63203 | 25895 ft | 305 kts | 310° |
| 2026-04-22 18:37 | -8.91170 | -49.64897 | 25893 ft | 305 kts | 310° |
| 2026-04-22 18:37 | -8.90295 | -49.66019 | 25892 ft | 305 kts | 310° |
| 2026-04-22 18:37 | -8.88541 | -49.68268 | 25895 ft | 305 kts | 310° |
| 2026-04-22 18:38 | -8.87229 | -49.69949 | 25889 ft | 305 kts | 310° |
| 2026-04-22 18:38 | -8.85921 | -49.71626 | 25889 ft | 305 kts | 309° |
| 2026-04-22 18:38 | -8.84607 | -49.73310 | 25891 ft | 305 kts | 310° |
| 2026-04-22 18:39 | -8.81977 | -49.76679 | 25889 ft | 305 kts | 309° |
| 2026-04-22 18:39 | -8.80670 | -49.78354 | 25890 ft | 305 kts | 310° |
| 2026-04-22 18:39 | -8.79357 | -49.80037 | 25891 ft | 305 kts | 309° |
| 2026-04-22 18:39 | -8.78045 | -49.81714 | 25890 ft | 305 kts | 309° |
| 2026-04-22 18:40 | -8.76728 | -49.83401 | 25890 ft | 305 kts | 309° |
| 2026-04-22 18:40 | -8.75413 | -49.85087 | 25892 ft | 305 kts | 309° |
| 2026-04-22 18:40 | -8.74104 | -49.86761 | 25890 ft | 305 kts | 309° |
| 2026-04-22 18:40 | -8.72781 | -49.88454 | 25893 ft | 305 kts | 309° |
| 2026-04-22 18:41 | -8.71475 | -49.90126 | 25889 ft | 305 kts | 309° |
| 2026-04-22 18:41 | -8.70153 | -49.91819 | 25893 ft | 305 kts | 309° |
| 2026-04-22 18:41 | -8.68832 | -49.93506 | 25892 ft | 305 kts | 309° |
| 2026-04-22 18:41 | -8.67518 | -49.95187 | 25892 ft | 305 kts | 309° |
| 2026-04-22 18:42 | -8.66215 | -49.96855 | 25891 ft | 305 kts | 310° |
| 2026-04-22 18:42 | -8.64891 | -49.98550 | 25893 ft | 305 kts | 309° |
| 2026-04-22 18:42 | -8.63588 | -50.00215 | 25893 ft | 305 kts | 310° |
| 2026-04-22 18:42 | -8.62263 | -50.01907 | 25892 ft | 304 kts | 309° |
| 2026-04-22 18:43 | -8.60947 | -50.03592 | 25889 ft | 305 kts | 309° |
| 2026-04-22 18:43 | -8.59644 | -50.05256 | 25891 ft | 304 kts | 309° |
| 2026-04-22 18:43 | -8.58324 | -50.06944 | 25893 ft | 305 kts | 309° |
| 2026-04-22 18:43 | -8.56999 | -50.08637 | 25890 ft | 305 kts | 309° |
| 2026-04-22 18:44 | -8.55694 | -50.10306 | 25890 ft | 305 kts | 309° |
| 2026-04-22 18:44 | -8.54380 | -50.11985 | 25887 ft | 305 kts | 309° |
| 2026-04-22 18:44 | -8.53057 | -50.13673 | 25894 ft | 305 kts | 310° |
| 2026-04-22 18:44 | -8.51755 | -50.15337 | 25889 ft | 305 kts | 309° |
| 2026-04-22 18:45 | -8.50449 | -50.17006 | 25891 ft | 304 kts | 309° |
| 2026-04-22 18:45 | -8.49117 | -50.18705 | 25890 ft | 304 kts | 309° |
| 2026-04-22 18:45 | -8.47819 | -50.20365 | 25890 ft | 305 kts | 309° |
| 2026-04-22 18:45 | -8.46511 | -50.22035 | 25891 ft | 304 kts | 309° |
| 2026-04-22 18:46 | -8.45193 | -50.23716 | 25894 ft | 305 kts | 309° |
| 2026-04-22 18:46 | -8.43877 | -50.25398 | 25892 ft | 305 kts | 309° |
| 2026-04-22 18:46 | -8.42567 | -50.27068 | 25894 ft | 305 kts | 309° |
| 2026-04-22 18:46 | -8.41252 | -50.28746 | 25893 ft | 305 kts | 309° |
| 2026-04-22 18:47 | -8.39927 | -50.30437 | 25893 ft | 305 kts | 309° |
| 2026-04-22 18:47 | -8.38620 | -50.32106 | 25893 ft | 304 kts | 309° |
| 2026-04-22 18:47 | -8.37313 | -50.33772 | 25891 ft | 304 kts | 309° |
| 2026-04-22 18:47 | -8.35998 | -50.35450 | 25891 ft | 304 kts | 309° |
| 2026-04-22 18:48 | -8.34688 | -50.37120 | 25893 ft | 304 kts | 309° |
| 2026-04-22 18:48 | -8.33383 | -50.38784 | 25895 ft | 304 kts | 309° |
| 2026-04-22 18:48 | -8.32071 | -50.40458 | 25895 ft | 304 kts | 309° |
| 2026-04-22 18:48 | -8.30760 | -50.42129 | 25893 ft | 303 kts | 309° |
| 2026-04-22 18:49 | -8.29437 | -50.43814 | 25897 ft | 303 kts | 309° |
| 2026-04-22 18:49 | -8.28567 | -50.44923 | 25896 ft | 303 kts | 309° |
| 2026-04-22 18:49 | -8.27274 | -50.46573 | 25891 ft | 303 kts | 309° |
| 2026-04-22 18:49 | -8.25950 | -50.48258 | 25894 ft | 302 kts | 309° |
| 2026-04-22 18:50 | -8.24222 | -50.50461 | 25897 ft | 302 kts | 309° |
| 2026-04-22 18:50 | -8.23345 | -50.51578 | 25895 ft | 302 kts | 309° |
| 2026-04-22 18:50 | -8.22043 | -50.53237 | 25894 ft | 302 kts | 309° |
| 2026-04-22 18:50 | -8.20736 | -50.54901 | 25894 ft | 302 kts | 309° |
| 2026-04-22 18:51 | -8.19432 | -50.56562 | 25895 ft | 302 kts | 309° |
| 2026-04-22 18:51 | -8.18139 | -50.58208 | 25894 ft | 301 kts | 309° |
| 2026-04-22 18:51 | -8.16835 | -50.59870 | 25897 ft | 301 kts | 309° |
| 2026-04-22 18:51 | -8.15532 | -50.61528 | 25895 ft | 301 kts | 309° |
| 2026-04-22 18:52 | -8.14227 | -50.63189 | 25897 ft | 301 kts | 309° |
| 2026-04-22 18:52 | -8.12926 | -50.64844 | 25897 ft | 301 kts | 309° |
| 2026-04-22 18:52 | -8.11623 | -50.66503 | 25896 ft | 301 kts | 309° |
| 2026-04-22 18:52 | -8.10331 | -50.68148 | 25898 ft | 301 kts | 309° |
| 2026-04-22 18:53 | -8.09033 | -50.69801 | 25899 ft | 301 kts | 309° |
| 2026-04-22 18:53 | -8.07746 | -50.71437 | 25898 ft | 300 kts | 309° |
| 2026-04-22 18:53 | -8.06433 | -50.73106 | 25898 ft | 301 kts | 309° |
| 2026-04-22 18:53 | -8.05143 | -50.74747 | 25896 ft | 300 kts | 309° |
| 2026-04-22 18:54 | -8.03847 | -50.76397 | 25900 ft | 300 kts | 309° |
| 2026-04-22 18:54 | -8.02537 | -50.78062 | 25901 ft | 300 kts | 309° |
| 2026-04-22 18:54 | -8.01254 | -50.79693 | 25901 ft | 300 kts | 309° |
| 2026-04-22 18:54 | -7.99950 | -50.81351 | 25903 ft | 300 kts | 309° |
| 2026-04-22 18:55 | -7.98658 | -50.82994 | 25900 ft | 300 kts | 309° |
| 2026-04-22 18:55 | -7.97363 | -50.84641 | 25899 ft | 300 kts | 309° |
| 2026-04-22 18:55 | -7.96065 | -50.86289 | 25900 ft | 300 kts | 309° |
| 2026-04-22 18:55 | -7.94762 | -50.87945 | 25899 ft | 300 kts | 309° |
| 2026-04-22 18:56 | -7.93468 | -50.89589 | 25897 ft | 300 kts | 309° |
| 2026-04-22 18:56 | -7.92175 | -50.91233 | 25895 ft | 300 kts | 309° |
| 2026-04-22 18:56 | -7.90875 | -50.92883 | 25896 ft | 299 kts | 309° |
| 2026-04-22 18:56 | -7.89575 | -50.94535 | 25895 ft | 299 kts | 309° |
| 2026-04-22 18:57 | -7.88286 | -50.96172 | 25893 ft | 299 kts | 309° |
| 2026-04-22 18:57 | -7.86988 | -50.97821 | 25897 ft | 299 kts | 309° |
| 2026-04-22 18:57 | -7.85697 | -50.99461 | 25895 ft | 299 kts | 309° |
| 2026-04-22 18:57 | -7.84416 | -51.01086 | 25894 ft | 299 kts | 309° |
| 2026-04-22 18:58 | -7.83119 | -51.02732 | 25895 ft | 299 kts | 309° |
| 2026-04-22 18:58 | -7.81832 | -51.04367 | 25894 ft | 299 kts | 309° |
| 2026-04-22 18:58 | -7.80533 | -51.06016 | 25893 ft | 298 kts | 309° |
| 2026-04-22 18:58 | -7.79232 | -51.07666 | 25894 ft | 299 kts | 309° |
| 2026-04-22 18:59 | -7.77954 | -51.09288 | 25889 ft | 299 kts | 309° |
| 2026-04-22 18:59 | -7.76663 | -51.10926 | 25889 ft | 299 kts | 309° |
| 2026-04-22 18:59 | -7.75360 | -51.12581 | 25888 ft | 299 kts | 309° |
| 2026-04-22 18:59 | -7.74066 | -51.14221 | 25890 ft | 299 kts | 309° |
| 2026-04-22 19:00 | -7.72776 | -51.15857 | 25890 ft | 299 kts | 309° |
| 2026-04-22 19:00 | -7.71493 | -51.17484 | 25890 ft | 299 kts | 309° |
| 2026-04-22 19:00 | -7.70203 | -51.19120 | 25889 ft | 299 kts | 309° |
| 2026-04-22 19:00 | -7.68904 | -51.20768 | 25889 ft | 299 kts | 309° |
| 2026-04-22 19:01 | -7.67602 | -51.22418 | 25890 ft | 302 kts | 309° |
| 2026-04-22 19:01 | -7.66287 | -51.24084 | 25889 ft | 305 kts | 309° |
| 2026-04-22 19:01 | -7.64962 | -51.25763 | 25892 ft | 307 kts | 309° |
| 2026-04-22 19:01 | -7.63626 | -51.27458 | 25885 ft | 310 kts | 309° |
| 2026-04-22 19:02 | -7.62270 | -51.29156 | 25890 ft | 311 kts | 312° |
| 2026-04-22 19:02 | -7.60818 | -51.30741 | 25885 ft | 312 kts | 314° |
| 2026-04-22 19:02 | -7.59332 | -51.32340 | 25887 ft | 313 kts | 314° |
| 2026-04-22 19:02 | -7.57850 | -51.33957 | 25886 ft | 314 kts | 314° |
| 2026-04-22 19:03 | -7.56371 | -51.35576 | 25891 ft | 314 kts | 314° |
| 2026-04-22 19:03 | -7.54882 | -51.37198 | 25888 ft | 315 kts | 314° |
| 2026-04-22 19:03 | -7.53392 | -51.38817 | 25888 ft | 315 kts | 314° |
| 2026-04-22 19:03 | -7.51901 | -51.40441 | 25887 ft | 316 kts | 314° |
| 2026-04-22 19:04 | -7.50407 | -51.42069 | 25891 ft | 316 kts | 314° |
| 2026-04-22 19:04 | -7.48911 | -51.43698 | 25886 ft | 317 kts | 314° |
| 2026-04-22 19:04 | -7.47416 | -51.45325 | 25888 ft | 317 kts | 314° |
| 2026-04-22 19:04 | -7.45931 | -51.46938 | 25887 ft | 317 kts | 314° |
| 2026-04-22 19:05 | -7.44432 | -51.48572 | 25888 ft | 317 kts | 314° |
| 2026-04-22 19:05 | -7.42929 | -51.50209 | 25885 ft | 317 kts | 314° |
| 2026-04-22 19:05 | -7.41428 | -51.51841 | 25886 ft | 318 kts | 314° |
| 2026-04-22 19:05 | -7.39925 | -51.53475 | 25885 ft | 318 kts | 314° |
| 2026-04-22 19:06 | -7.38422 | -51.55111 | 25889 ft | 318 kts | 314° |
| 2026-04-22 19:06 | -7.36918 | -51.56747 | 25886 ft | 318 kts | 314° |
| 2026-04-22 19:06 | -7.35417 | -51.58379 | 25884 ft | 318 kts | 314° |
| 2026-04-22 19:07 | -7.32409 | -51.61650 | 25885 ft | 318 kts | 314° |
| 2026-04-22 19:07 | -7.30926 | -51.63262 | 25885 ft | 318 kts | 314° |
| 2026-04-22 19:07 | -7.29423 | -51.64897 | 25884 ft | 318 kts | 314° |
| 2026-04-22 19:07 | -7.27921 | -51.66529 | 25882 ft | 318 kts | 314° |
| 2026-04-22 19:08 | -7.26419 | -51.68162 | 25882 ft | 318 kts | 314° |
| 2026-04-22 19:08 | -7.24916 | -51.69796 | 25883 ft | 318 kts | 314° |
| 2026-04-22 19:08 | -7.23410 | -51.71433 | 25881 ft | 318 kts | 314° |
| 2026-04-22 19:08 | -7.21908 | -51.73063 | 25884 ft | 318 kts | 314° |
| 2026-04-22 19:09 | -7.20400 | -51.74701 | 25881 ft | 317 kts | 314° |
| 2026-04-22 19:09 | -7.18918 | -51.76312 | 25883 ft | 317 kts | 314° |
| 2026-04-22 19:09 | -7.17416 | -51.77944 | 25879 ft | 317 kts | 314° |
| 2026-04-22 19:09 | -7.15916 | -51.79575 | 25879 ft | 317 kts | 314° |
| 2026-04-22 19:10 | -7.14416 | -51.81203 | 25880 ft | 317 kts | 314° |
| 2026-04-22 19:10 | -7.12915 | -51.82831 | 25880 ft | 317 kts | 314° |
| 2026-04-22 19:10 | -7.11415 | -51.84461 | 25876 ft | 317 kts | 314° |
| 2026-04-22 19:10 | -7.09916 | -51.86089 | 25881 ft | 317 kts | 314° |
| 2026-04-22 19:11 | -7.08415 | -51.87717 | 25877 ft | 317 kts | 314° |
| 2026-04-22 19:11 | -7.06921 | -51.89339 | 25877 ft | 317 kts | 314° |
| 2026-04-22 19:11 | -7.05427 | -51.90961 | 25876 ft | 317 kts | 314° |
| 2026-04-22 19:11 | -7.03913 | -51.92604 | 25875 ft | 317 kts | 314° |
| 2026-04-22 19:12 | -7.02405 | -51.94241 | 25876 ft | 317 kts | 314° |
| 2026-04-22 19:12 | -7.00923 | -51.95849 | 25875 ft | 317 kts | 314° |
| 2026-04-22 19:12 | -6.99408 | -51.97490 | 25874 ft | 317 kts | 314° |
| 2026-04-22 19:12 | -6.97919 | -51.99105 | 25875 ft | 318 kts | 314° |
| 2026-04-22 19:13 | -6.96418 | -52.00739 | 25875 ft | 318 kts | 314° |
| 2026-04-22 19:13 | -6.94910 | -52.02372 | 25876 ft | 318 kts | 314° |
| 2026-04-22 19:13 | -6.93401 | -52.04004 | 25874 ft | 317 kts | 314° |
| 2026-04-22 19:13 | -6.91903 | -52.05630 | 25875 ft | 316 kts | 314° |
| 2026-04-22 19:14 | -6.90410 | -52.07251 | 25873 ft | 315 kts | 314° |
| 2026-04-22 19:14 | -6.88921 | -52.08865 | 25872 ft | 315 kts | 314° |
| 2026-04-22 19:14 | -6.87448 | -52.10461 | 25873 ft | 314 kts | 314° |
| 2026-04-22 19:14 | -6.85957 | -52.12077 | 25871 ft | 314 kts | 314° |
| 2026-04-22 19:15 | -6.84952 | -52.13166 | 25871 ft | 314 kts | 314° |
| 2026-04-22 19:15 | -6.82986 | -52.15298 | 25871 ft | 313 kts | 314° |
| 2026-04-22 19:15 | -6.81503 | -52.16904 | 25869 ft | 313 kts | 314° |
| 2026-04-22 19:15 | -6.80020 | -52.18511 | 25869 ft | 313 kts | 314° |
| 2026-04-22 19:16 | -6.78536 | -52.20117 | 25868 ft | 313 kts | 314° |
| 2026-04-22 19:16 | -6.77058 | -52.21720 | 25865 ft | 313 kts | 314° |
| 2026-04-22 19:16 | -6.75574 | -52.23329 | 25864 ft | 313 kts | 314° |
| 2026-04-22 19:16 | -6.74094 | -52.24931 | 25864 ft | 313 kts | 314° |
| 2026-04-22 19:17 | -6.72612 | -52.26534 | 25864 ft | 312 kts | 314° |
| 2026-04-22 19:17 | -6.71135 | -52.28133 | 25868 ft | 312 kts | 314° |
| 2026-04-22 19:17 | -6.69655 | -52.29736 | 25867 ft | 312 kts | 314° |
| 2026-04-22 19:17 | -6.68198 | -52.31314 | 25867 ft | 312 kts | 314° |
| 2026-04-22 19:18 | -6.66719 | -52.32916 | 25868 ft | 312 kts | 314° |
| 2026-04-22 19:18 | -6.65242 | -52.34515 | 25864 ft | 312 kts | 314° |
| 2026-04-22 19:18 | -6.63764 | -52.36113 | 25865 ft | 312 kts | 314° |
| 2026-04-22 19:18 | -6.62287 | -52.37714 | 25865 ft | 312 kts | 314° |
| 2026-04-22 19:19 | -6.60805 | -52.39316 | 25862 ft | 312 kts | 314° |
| 2026-04-22 19:19 | -6.59328 | -52.40913 | 25859 ft | 312 kts | 314° |
| 2026-04-22 19:19 | -6.57851 | -52.42511 | 25860 ft | 312 kts | 314° |
| 2026-04-22 19:19 | -6.56373 | -52.44111 | 25860 ft | 312 kts | 314° |
| 2026-04-22 19:20 | -6.54894 | -52.45712 | 25863 ft | 312 kts | 314° |
| 2026-04-22 19:20 | -6.53423 | -52.47302 | 25861 ft | 312 kts | 314° |
| 2026-04-22 19:20 | -6.51939 | -52.48907 | 25859 ft | 311 kts | 314° |
| 2026-04-22 19:20 | -6.50480 | -52.50483 | 25858 ft | 311 kts | 314° |
| 2026-04-22 19:21 | -6.49005 | -52.52079 | 25859 ft | 311 kts | 314° |
| 2026-04-22 19:21 | -6.47531 | -52.53674 | 25861 ft | 312 kts | 314° |
| 2026-04-22 19:21 | -6.46051 | -52.55273 | 25859 ft | 311 kts | 314° |
| 2026-04-22 19:21 | -6.44575 | -52.56869 | 25859 ft | 311 kts | 314° |
| 2026-04-22 19:22 | -6.43100 | -52.58463 | 25861 ft | 311 kts | 314° |
| 2026-04-22 19:22 | -6.41625 | -52.60057 | 25856 ft | 311 kts | 314° |
| 2026-04-22 19:22 | -6.40149 | -52.61653 | 25856 ft | 311 kts | 314° |
| 2026-04-22 19:22 | -6.38672 | -52.63249 | 25857 ft | 312 kts | 314° |
| 2026-04-22 19:23 | -6.37193 | -52.64847 | 25856 ft | 313 kts | 314° |
| 2026-04-22 19:23 | -6.35706 | -52.66453 | 25856 ft | 314 kts | 314° |
| 2026-04-22 19:23 | -6.34219 | -52.68023 | 25860 ft | 314 kts | 319° |
| 2026-04-22 19:23 | -6.32463 | -52.69311 | 25870 ft | 312 kts | 333° |
| 2026-04-22 19:24 | -6.30493 | -52.70226 | 25868 ft | 312 kts | 338° |
| 2026-04-22 19:24 | -6.28495 | -52.71089 | 25866 ft | 313 kts | 338° |
| 2026-04-22 19:24 | -6.26516 | -52.72002 | 25864 ft | 313 kts | 336° |
| 2026-04-22 19:24 | -6.24545 | -52.72938 | 25866 ft | 314 kts | 336° |
| 2026-04-22 19:25 | -6.22560 | -52.73858 | 25868 ft | 314 kts | 337° |
| 2026-04-22 19:25 | -6.20575 | -52.74768 | 25869 ft | 314 kts | 337° |
| 2026-04-22 19:25 | -6.18591 | -52.75684 | 25867 ft | 314 kts | 336° |
| 2026-04-22 19:25 | -6.16611 | -52.76604 | 25867 ft | 314 kts | 337° |
| 2026-04-22 19:26 | -6.14625 | -52.77523 | 25866 ft | 314 kts | 337° |
| 2026-04-22 19:26 | -6.12637 | -52.78442 | 25868 ft | 314 kts | 337° |
| 2026-04-22 19:26 | -6.10653 | -52.79359 | 25868 ft | 314 kts | 337° |
| 2026-04-22 19:26 | -6.08669 | -52.80277 | 25868 ft | 314 kts | 337° |
| 2026-04-22 19:27 | -6.06688 | -52.81194 | 25868 ft | 314 kts | 337° |
| 2026-04-22 19:27 | -6.04723 | -52.82103 | 25868 ft | 314 kts | 337° |
| 2026-04-22 19:27 | -6.02738 | -52.83020 | 25868 ft | 314 kts | 337° |
| 2026-04-22 19:27 | -6.00755 | -52.83938 | 25868 ft | 314 kts | 337° |
| 2026-04-22 19:28 | -5.98767 | -52.84857 | 25871 ft | 314 kts | 337° |
| 2026-04-22 19:28 | -5.96785 | -52.85773 | 25868 ft | 314 kts | 337° |
| 2026-04-22 19:28 | -5.94802 | -52.86689 | 25868 ft | 314 kts | 337° |
| 2026-04-22 19:28 | -5.92820 | -52.87606 | 25869 ft | 313 kts | 337° |
| 2026-04-22 19:29 | -5.90835 | -52.88524 | 25868 ft | 313 kts | 337° |
| 2026-04-22 19:29 | -5.88857 | -52.89439 | 25867 ft | 314 kts | 337° |
| 2026-04-22 19:29 | -5.86872 | -52.90355 | 25867 ft | 314 kts | 337° |
| 2026-04-22 19:29 | -5.84889 | -52.91270 | 25867 ft | 314 kts | 337° |
| 2026-04-22 19:30 | -5.83572 | -52.91880 | 25870 ft | 314 kts | 338° |
| 2026-04-22 19:30 | -5.80938 | -52.93098 | 25870 ft | 314 kts | 337° |
| 2026-04-22 19:30 | -5.78956 | -52.94012 | 25869 ft | 314 kts | 337° |
| 2026-04-22 19:30 | -5.76973 | -52.94928 | 25867 ft | 314 kts | 338° |
| 2026-04-22 19:31 | -5.74976 | -52.95853 | 25867 ft | 314 kts | 337° |
| 2026-04-22 19:31 | -5.72991 | -52.96768 | 25867 ft | 313 kts | 337° |
| 2026-04-22 19:31 | -5.71007 | -52.97684 | 25867 ft | 313 kts | 337° |
| 2026-04-22 19:31 | -5.69025 | -52.98599 | 25868 ft | 313 kts | 338° |
| 2026-04-22 19:32 | -5.67073 | -52.99502 | 25866 ft | 313 kts | 337° |
| 2026-04-22 19:32 | -5.65087 | -53.00419 | 25871 ft | 313 kts | 337° |
| 2026-04-22 19:32 | -5.63107 | -53.01332 | 25868 ft | 313 kts | 337° |
| 2026-04-22 19:32 | -5.61124 | -53.02248 | 25866 ft | 313 kts | 337° |
| 2026-04-22 19:33 | -5.59145 | -53.03162 | 25869 ft | 313 kts | 337° |
| 2026-04-22 19:33 | -5.57161 | -53.04078 | 25866 ft | 313 kts | 337° |
| 2026-04-22 19:33 | -5.55181 | -53.04992 | 25866 ft | 313 kts | 337° |
| 2026-04-22 19:33 | -5.53198 | -53.05907 | 25868 ft | 313 kts | 337° |
| 2026-04-22 19:34 | -5.51245 | -53.06809 | 25867 ft | 313 kts | 337° |
| 2026-04-22 19:34 | -5.49266 | -53.07721 | 25870 ft | 313 kts | 337° |
| 2026-04-22 19:34 | -5.47286 | -53.08635 | 25870 ft | 313 kts | 337° |
| 2026-04-22 19:34 | -5.45306 | -53.09549 | 25870 ft | 313 kts | 337° |
| 2026-04-22 19:35 | -5.43327 | -53.10463 | 25871 ft | 313 kts | 337° |
| 2026-04-22 19:35 | -5.41342 | -53.11378 | 25870 ft | 313 kts | 337° |
| 2026-04-22 19:35 | -5.40026 | -53.11984 | 25868 ft | 313 kts | 337° |
| 2026-04-22 19:35 | -5.37370 | -53.13209 | 25869 ft | 313 kts | 337° |
| 2026-04-22 19:36 | -5.36053 | -53.13817 | 25868 ft | 313 kts | 337° |
| 2026-04-22 19:36 | -5.33424 | -53.15031 | 25869 ft | 313 kts | 337° |
| 2026-04-22 19:36 | -5.32084 | -53.15648 | 25868 ft | 314 kts | 337° |
| 2026-04-22 19:36 | -5.29457 | -53.16859 | 25870 ft | 314 kts | 337° |
| 2026-04-22 19:37 | -5.28117 | -53.17478 | 25870 ft | 314 kts | 337° |
| 2026-04-22 19:37 | -5.26161 | -53.18380 | 25869 ft | 314 kts | 337° |
| 2026-04-22 19:37 | -5.24173 | -53.19294 | 25871 ft | 314 kts | 337° |
| 2026-04-22 19:37 | -5.22189 | -53.20210 | 25870 ft | 314 kts | 337° |
| 2026-04-22 19:38 | -5.20201 | -53.21128 | 25873 ft | 314 kts | 337° |
| 2026-04-22 19:38 | -5.18216 | -53.22043 | 25868 ft | 314 kts | 337° |
| 2026-04-22 19:38 | -5.16226 | -53.22959 | 25869 ft | 314 kts | 337° |
| 2026-04-22 19:38 | -5.14238 | -53.23876 | 25869 ft | 314 kts | 337° |
| 2026-04-22 19:39 | -5.12252 | -53.24791 | 25867 ft | 314 kts | 337° |
| 2026-04-22 19:39 | -5.10265 | -53.25706 | 25870 ft | 314 kts | 337° |
| 2026-04-22 19:39 | -5.08273 | -53.26625 | 25868 ft | 314 kts | 337° |
| 2026-04-22 19:39 | -5.06959 | -53.27230 | 25868 ft | 314 kts | 337° |
| 2026-04-22 19:40 | -5.04298 | -53.28456 | 25871 ft | 314 kts | 337° |
| 2026-04-22 19:40 | -5.02337 | -53.29359 | 25867 ft | 314 kts | 337° |
| 2026-04-22 19:40 | -5.00351 | -53.30275 | 25871 ft | 314 kts | 337° |
| 2026-04-22 19:40 | -4.98365 | -53.31189 | 25869 ft | 314 kts | 337° |
| 2026-04-22 19:41 | -4.96376 | -53.32106 | 25870 ft | 315 kts | 337° |
| 2026-04-22 19:41 | -4.94386 | -53.33022 | 25868 ft | 315 kts | 337° |
| 2026-04-22 19:41 | -4.92396 | -53.33938 | 25868 ft | 315 kts | 337° |
| 2026-04-22 19:41 | -4.90403 | -53.34857 | 25867 ft | 315 kts | 337° |
| 2026-04-22 19:42 | -4.88414 | -53.35773 | 25868 ft | 315 kts | 337° |
| 2026-04-22 19:42 | -4.86411 | -53.36694 | 25867 ft | 315 kts | 337° |
| 2026-04-22 19:42 | -4.84431 | -53.37606 | 25868 ft | 315 kts | 337° |
| 2026-04-22 19:42 | -4.82448 | -53.38520 | 25866 ft | 315 kts | 337° |
| 2026-04-22 19:43 | -4.78451 | -53.40360 | 25865 ft | 315 kts | 337° |
| 2026-04-22 19:43 | -4.76469 | -53.41273 | 25865 ft | 315 kts | 337° |
| 2026-04-22 19:43 | -4.74463 | -53.42197 | 25864 ft | 315 kts | 337° |
| 2026-04-22 19:44 | -4.72483 | -53.43109 | 25866 ft | 315 kts | 337° |
| 2026-04-22 19:44 | -4.70478 | -53.44032 | 25866 ft | 315 kts | 337° |
| 2026-04-22 19:44 | -4.68476 | -53.44954 | 25866 ft | 315 kts | 337° |
| 2026-04-22 19:44 | -4.66498 | -53.45864 | 25864 ft | 315 kts | 337° |
| 2026-04-22 19:45 | -4.64497 | -53.46785 | 25865 ft | 316 kts | 337° |
| 2026-04-22 19:45 | -4.62503 | -53.47703 | 25863 ft | 316 kts | 337° |
| 2026-04-22 19:45 | -4.60543 | -53.48700 | 25865 ft | 317 kts | 329° |
| 2026-04-22 19:45 | -4.58763 | -53.50011 | 25864 ft | 317 kts | 322° |
| 2026-04-22 19:46 | -4.57083 | -53.51406 | 25865 ft | 317 kts | 322° |
| 2026-04-22 19:46 | -4.55328 | -53.52753 | 25867 ft | 317 kts | 326° |
| 2026-04-22 19:46 | -4.53518 | -53.54018 | 25865 ft | 317 kts | 326° |
| 2026-04-22 19:46 | -4.51720 | -53.55300 | 25865 ft | 317 kts | 325° |
| 2026-04-22 19:47 | -4.49944 | -53.56617 | 25865 ft | 318 kts | 324° |
| 2026-04-22 19:47 | -4.48167 | -53.57930 | 25866 ft | 318 kts | 325° |
| 2026-04-22 19:47 | -4.46376 | -53.59232 | 25864 ft | 318 kts | 325° |
| 2026-04-22 19:47 | -4.44587 | -53.60532 | 25863 ft | 318 kts | 325° |
| 2026-04-22 19:48 | -4.42797 | -53.61841 | 25865 ft | 318 kts | 325° |
| 2026-04-22 19:48 | -4.41013 | -53.63147 | 25865 ft | 318 kts | 325° |
| 2026-04-22 19:48 | -4.39226 | -53.64452 | 25865 ft | 318 kts | 325° |
| 2026-04-22 19:48 | -4.37437 | -53.65758 | 25864 ft | 318 kts | 325° |
| 2026-04-22 19:49 | -4.35671 | -53.67047 | 25867 ft | 318 kts | 325° |
| 2026-04-22 19:49 | -4.33883 | -53.68353 | 25866 ft | 319 kts | 325° |
| 2026-04-22 19:49 | -4.32088 | -53.69663 | 25820 ft | 320 kts | 325° |
| 2026-04-22 19:49 | -4.30267 | -53.70992 | 25616 ft | 327 kts | 325° |
| 2026-04-22 19:50 | -4.28409 | -53.72348 | 25412 ft | 332 kts | 325° |
| 2026-04-22 19:50 | -4.26526 | -53.73722 | 25215 ft | 337 kts | 325° |
| 2026-04-22 19:50 | -4.24625 | -53.75111 | 25017 ft | 340 kts | 325° |
| 2026-04-22 19:50 | -4.22708 | -53.76511 | 24824 ft | 342 kts | 325° |
| 2026-04-22 19:51 | -4.20775 | -53.77920 | 24626 ft | 344 kts | 325° |
| 2026-04-22 19:51 | -4.18829 | -53.79340 | 24439 ft | 346 kts | 325° |
| 2026-04-22 19:51 | -4.16880 | -53.80764 | 24240 ft | 347 kts | 325° |
| 2026-04-22 19:51 | -4.14945 | -53.82176 | 24052 ft | 348 kts | 325° |
| 2026-04-22 19:52 | -4.12984 | -53.83606 | 23864 ft | 349 kts | 325° |
| 2026-04-22 19:52 | -4.11017 | -53.85041 | 23673 ft | 350 kts | 325° |
| 2026-04-22 19:52 | -4.09048 | -53.86478 | 23482 ft | 350 kts | 325° |
| 2026-04-22 19:52 | -4.07079 | -53.87915 | 23261 ft | 350 kts | 325° |
| 2026-04-22 19:53 | -4.05100 | -53.89359 | 23033 ft | 351 kts | 324° |
| 2026-04-22 19:53 | -4.03128 | -53.90797 | 22805 ft | 351 kts | 325° |
| 2026-04-22 19:53 | -4.01147 | -53.92240 | 22543 ft | 352 kts | 325° |
| 2026-04-22 19:53 | -3.99164 | -53.93687 | 22302 ft | 352 kts | 324° |
| 2026-04-22 19:54 | -3.97178 | -53.95138 | 22056 ft | 353 kts | 325° |
| 2026-04-22 19:54 | -3.95195 | -53.96583 | 21811 ft | 353 kts | 324° |
| 2026-04-22 19:54 | -3.93235 | -53.98010 | 21573 ft | 353 kts | 324° |
| 2026-04-22 19:54 | -3.91249 | -53.99461 | 21331 ft | 353 kts | 324° |
| 2026-04-22 19:55 | -3.89261 | -54.00911 | 21093 ft | 353 kts | 325° |
| 2026-04-22 19:55 | -3.87274 | -54.02356 | 20854 ft | 353 kts | 325° |
| 2026-04-22 19:55 | -3.85291 | -54.03803 | 20621 ft | 353 kts | 324° |
| 2026-04-22 19:55 | -3.83303 | -54.05257 | 20384 ft | 353 kts | 324° |
| 2026-04-22 19:56 | -3.81320 | -54.06700 | 20153 ft | 352 kts | 325° |
| 2026-04-22 19:56 | -3.79336 | -54.08143 | 19921 ft | 352 kts | 324° |
| 2026-04-22 19:56 | -3.77360 | -54.09584 | 19691 ft | 352 kts | 324° |
| 2026-04-22 19:56 | -3.75384 | -54.11028 | 19464 ft | 351 kts | 324° |
| 2026-04-22 19:57 | -3.73404 | -54.12471 | 19236 ft | 351 kts | 324° |
| 2026-04-22 19:57 | -3.71423 | -54.13910 | 19013 ft | 351 kts | 324° |
| 2026-04-22 19:57 | -3.69474 | -54.15331 | 18794 ft | 350 kts | 324° |
| 2026-04-22 19:57 | -3.67511 | -54.16765 | 18572 ft | 348 kts | 324° |
| 2026-04-22 19:58 | -3.65554 | -54.18189 | 18348 ft | 347 kts | 324° |
| 2026-04-22 19:58 | -3.63609 | -54.19604 | 18131 ft | 344 kts | 324° |
| 2026-04-22 19:58 | -3.61686 | -54.21010 | 17873 ft | 341 kts | 324° |
| 2026-04-22 19:58 | -3.59769 | -54.22406 | 17621 ft | 340 kts | 324° |
| 2026-04-22 19:59 | -3.57857 | -54.23798 | 17367 ft | 339 kts | 324° |
| 2026-04-22 20:00 | -3.46504 | -54.32074 | 15901 ft | 335 kts | 324° |
| 2026-04-22 20:00 | -3.44624 | -54.33443 | 15661 ft | 334 kts | 324° |
| 2026-04-22 20:01 | -3.42769 | -54.34794 | 15429 ft | 334 kts | 324° |
| 2026-04-22 20:01 | -3.40892 | -54.36162 | 15193 ft | 333 kts | 325° |
| 2026-04-22 20:01 | -3.39015 | -54.37527 | 14961 ft | 333 kts | 325° |
| 2026-04-22 20:01 | -3.37141 | -54.38891 | 14733 ft | 332 kts | 325° |
| 2026-04-22 20:02 | -3.35282 | -54.40246 | 14502 ft | 329 kts | 324° |
| 2026-04-22 20:02 | -3.33441 | -54.41588 | 14271 ft | 325 kts | 325° |
| 2026-04-22 20:02 | -3.31639 | -54.42897 | 14047 ft | 321 kts | 325° |
| 2026-04-22 20:02 | -3.29848 | -54.44204 | 13821 ft | 316 kts | 325° |
| 2026-04-22 20:03 | -3.28077 | -54.45494 | 13578 ft | 312 kts | 325° |
| 2026-04-22 20:03 | -3.26326 | -54.46767 | 13334 ft | 309 kts | 325° |
| 2026-04-22 20:03 | -3.24584 | -54.48037 | 13075 ft | 311 kts | 325° |
| 2026-04-22 20:03 | -3.22827 | -54.49312 | 12833 ft | 313 kts | 325° |
| 2026-04-22 20:04 | -3.21060 | -54.50595 | 12581 ft | 314 kts | 325° |
| 2026-04-22 20:04 | -3.19294 | -54.51883 | 12333 ft | 314 kts | 325° |
| 2026-04-22 20:04 | -3.17527 | -54.53169 | 12086 ft | 314 kts | 325° |
| 2026-04-22 20:04 | -3.15765 | -54.54453 | 11850 ft | 313 kts | 325° |
| 2026-04-22 20:05 | -3.13997 | -54.55737 | 11607 ft | 313 kts | 325° |
| 2026-04-22 20:05 | -3.12239 | -54.57018 | 11364 ft | 312 kts | 325° |
| 2026-04-22 20:05 | -3.10509 | -54.58277 | 11129 ft | 311 kts | 325° |
| 2026-04-22 20:05 | -3.08758 | -54.59548 | 10896 ft | 311 kts | 325° |
| 2026-04-22 20:06 | -3.07009 | -54.60822 | 10666 ft | 310 kts | 325° |
| 2026-04-22 20:06 | -3.05269 | -54.62089 | 10431 ft | 309 kts | 325° |
| 2026-04-22 20:06 | -3.03529 | -54.63354 | 10198 ft | 307 kts | 325° |
| 2026-04-22 20:06 | -3.01814 | -54.64605 | 9975 ft | 306 kts | 325° |
| 2026-04-22 20:07 | -3.00076 | -54.65866 | 9754 ft | 310 kts | 325° |
| 2026-04-22 20:07 | -2.98342 | -54.67124 | 9494 ft | 305 kts | 325° |
| 2026-04-22 20:07 | -2.96636 | -54.68368 | 9242 ft | 301 kts | 325° |
| 2026-04-22 20:07 | -2.94947 | -54.69600 | 8996 ft | 299 kts | 325° |
| 2026-04-22 20:08 | -2.93270 | -54.70817 | 8743 ft | 297 kts | 325° |
| 2026-04-22 20:08 | -2.91604 | -54.72027 | 8498 ft | 295 kts | 325° |
| 2026-04-22 20:08 | -2.89945 | -54.73235 | 8253 ft | 294 kts | 325° |
| 2026-04-22 20:08 | -2.88293 | -54.74439 | 8010 ft | 293 kts | 325° |
| 2026-04-22 20:09 | -2.86645 | -54.75634 | 7773 ft | 299 kts | 325° |
| 2026-04-22 20:09 | -2.84950 | -54.76864 | 7536 ft | 302 kts | 325° |
| 2026-04-22 20:09 | -2.83244 | -54.78109 | 7301 ft | 304 kts | 325° |
| 2026-04-22 20:09 | -2.81526 | -54.79357 | 7067 ft | 306 kts | 325° |
| 2026-04-22 20:10 | -2.81093 | -54.79671 | 7007 ft | 0 kts | 325° |